Time;durP1;ratioP1;P1;durP2;ratioP2;P2;SDS_P1;SDS_P2;PMS_P1;PMS_P2;Temp;Humidity;BMP_temperature;BMP_pressure;BME280_temperature;BME280_humidity;BME280_pressure;Samples;Min_cycle;Max_cycle;Signal;HPM_P1;HPM_P2
2023/01/31 00:08:35;;;;;;;229.38;207.82;;;;;;;20.43;nan;99947.22;20933974;28;20080;-82
2023/01/31 00:18:37;;;;;;;244.68;221.68;;;;;;;20.39;nan;99938.75;20931104;28;20041;-82
2023/01/31 00:28:38;;;;;;;251.23;227.63;;;;;;;20.37;nan;99947.72;20938253;28;20072;-81
2023/01/31 00:38:41;;;;;;;238.68;216.32;;;;;;;20.36;nan;99935.53;20930213;28;20037;-82
2023/01/31 00:48:42;;;;;;;;;;;;;;;20.35;nan;99933.88;20929790;28;20044;-82
2023/01/31 00:58:43;;;;;;;233.05;211.40;;;;;;;20.34;nan;99932.22;20925795;28;19916;-82
2023/01/31 01:08:44;;;;;;;228.05;207.07;;;;;;;20.31;nan;99928.88;20924024;28;20055;-81
2023/01/31 01:18:47;;;;;;;253.43;229.63;;;;;;;20.32;nan;99916.56;20927140;28;20266;-81
2023/01/31 01:28:49;;;;;;;260.70;236.50;;;;;;;20.29;nan;99925.53;20923654;28;20044;-81
2023/01/31 01:38:51;;;;;;;253.88;230.10;;;;;;;20.31;nan;99941.16;20924768;28;20132;-82
2023/01/31 01:48:57;;;;;;;254.90;231.18;;;;;;;20.32;nan;99942.84;20930226;28;20044;-82
2023/01/31 01:59:14;;;;;;;281.48;255.05;;;;;;;20.31;nan;99943.78;20923032;28;20044;-82
2023/01/31 02:09:41;;;;;;;291.77;264.35;;;;;;;20.28;nan;99955.41;20931099;28;20040;-83
2023/01/31 02:20:06;;;;;;;273.48;248.02;;;;;;;20.29;nan;99974.66;20932464;28;20058;-83
2023/01/31 02:30:12;;;;;;;271.80;246.35;;;;;;;20.29;nan;99966.78;20930503;28;20040;-83
2023/01/31 02:40:24;;;;;;;285.60;258.98;;;;;;;20.22;nan;99965.59;20919740;28;20044;-83
2023/01/31 02:50:45;;;;;;;288.77;261.53;;;;;;;20.25;nan;99967.94;20909254;28;20040;-82
2023/01/31 03:00:48;;;;;;;306.98;278.48;;;;;;;20.25;nan;99994.25;20919416;28;20036;-81
2023/01/31 03:11:02;;;;;;;300.13;272.10;;;;;;;20.23;nan;100007.53;20943754;28;20109;-81
2023/01/31 03:21:13;;;;;;;361.88;327.95;;;;;;;20.22;nan;100005.84;20915426;28;20049;-81
2023/01/31 03:31:21;;;;;;;359.17;325.30;;;;;;;20.23;nan;100018.03;20923160;28;20036;-82
2023/01/31 03:41:22;;;;;;;595.22;541.53;;;;;;;20.23;nan;100033.00;20925899;28;20037;-81
2023/01/31 03:51:28;;;;;;;259.75;235.68;;;;;;;20.23;nan;100038.25;20927207;28;20483;-82
2023/01/31 04:01:33;;;;;;;244.48;221.13;;;;;;;20.21;nan;100037.53;20940956;28;20037;-81
2023/01/31 04:11:39;;;;;;;240.98;218.60;;;;;;;20.18;nan;100040.38;20928046;28;20036;-81
2023/01/31 04:21:41;;;;;;;238.63;216.70;;;;;;;20.20;nan;100049.84;20927101;28;20032;-83
2023/01/31 04:31:41;;;;;;;254.65;231.02;;;;;;;20.17;nan;100041.34;20929086;28;20040;-82
2023/01/31 04:41:42;;;;;;;244.57;222.07;;;;;;;20.15;nan;100070.38;20926426;28;20498;-81
2023/01/31 04:51:45;;;;;;;247.00;224.18;;;;;;;20.15;nan;100089.63;20921441;28;20042;-82
2023/01/31 05:01:45;;;;;;;240.30;218.00;;;;;;;20.15;nan;100105.41;20922848;28;20132;-81
2023/01/31 05:11:46;;;;;;;231.38;209.90;;;;;;;20.21;nan;100153.19;20918010;28;20466;-81
2023/01/31 05:21:58;;;;;;;245.38;222.15;;;;;;;20.27;nan;100150.91;20890977;28;20090;-81
2023/01/31 05:32:00;;;;;;;248.43;225.07;;;;;;;20.38;nan;100131.69;20885781;28;20169;-80
2023/01/31 05:42:01;;;;;;;228.80;207.32;;;;;;;20.48;nan;100127.38;20906055;28;20064;-80
2023/01/31 05:52:01;;;;;;;231.30;209.02;;;;;;;20.55;nan;100130.34;20892917;28;20041;-83
2023/01/31 06:02:03;;;;;;;234.63;212.15;;;;;;;20.52;nan;100146.41;20882801;28;20127;-80
2023/01/31 06:12:04;;;;;;;235.48;213.02;;;;;;;20.57;nan;100164.47;20922402;28;20319;-88
2023/01/31 06:22:05;;;;;;;252.20;228.23;;;;;;;20.61;nan;100173.78;20910631;28;20036;-82
2023/01/31 06:32:05;;;;;;;226.23;204.63;;;;;;;20.68;nan;100187.25;20934848;28;20068;-81
2023/01/31 06:42:06;;;;;;;252.32;228.25;;;;;;;20.77;nan;100213.72;20940602;28;20166;-83
2023/01/31 06:52:06;;;;;;;241.00;217.93;;;;;;;20.83;nan;100238.72;20919595;28;20049;-84
2023/01/31 07:02:09;;;;;;;241.88;218.77;;;;;;;20.89;nan;100254.03;20929721;28;20505;-78
2023/01/31 07:12:10;;;;;;;259.65;234.77;;;;;;;20.95;nan;100255.38;20904274;28;20048;-81
2023/01/31 07:22:11;;;;;;;248.05;224.45;;;;;;;21.01;nan;100260.16;20916636;28;20036;-80
2023/01/31 07:32:12;;;;;;;245.93;222.02;;;;;;;21.06;nan;100278.22;20942993;28;20041;-82
2023/01/31 07:42:15;;;;;;;262.13;236.77;;;;;;;21.12;nan;100301.44;20948427;28;20158;-83
2023/01/31 07:52:19;;;;;;;244.05;220.25;;;;;;;21.09;nan;100315.66;20947696;28;20044;-81
2023/01/31 08:12:40;;;;;;;258.33;233.43;;;;;;;21.24;nan;100352.28;20938783;28;20048;-80
2023/01/31 08:22:41;;;;;;;257.38;232.57;;;;;;;21.32;nan;100370.94;20928546;28;20044;-80
2023/01/31 08:32:43;;;;;;;249.20;225.20;;;;;;;21.37;nan;100384.63;20926715;28;20047;-80
2023/01/31 08:42:43;;;;;;;240.38;217.15;;;;;;;21.42;nan;100398.25;20953304;28;20040;-79
2023/01/31 08:52:44;;;;;;;240.73;217.70;;;;;;;21.49;nan;100406.50;20940671;28;20037;-78
2023/01/31 09:02:57;;;;;;;259.15;234.07;;;;;;;21.51;nan;100420.41;20958931;28;20040;-78
2023/01/31 09:12:58;;;;;;;;;;;;;;;21.53;nan;100447.47;20944868;28;20041;-82
2023/01/31 09:22:59;;;;;;;262.33;237.05;;;;;;;21.54;nan;100430.69;20935232;28;19931;-84
2023/01/31 09:33:00;;;;;;;245.13;221.52;;;;;;;21.55;nan;100419.19;20927052;28;20044;-79
2023/01/31 09:43:02;;;;;;;247.43;223.85;;;;;;;21.56;nan;100434.09;20923554;28;20461;-80
2023/01/31 09:53:04;;;;;;;261.90;236.70;;;;;;;21.59;nan;100448.81;20930157;28;20055;-80
2023/01/31 10:03:34;;;;;;;255.13;230.48;;;;;;;21.62;nan;100453.00;20928805;28;20039;-83
2023/01/31 10:13:44;;;;;;;244.65;220.98;;;;;;;21.66;nan;100450.00;20922688;28;20565;-88
2023/01/31 10:24:22;;;;;;;256.58;231.45;;;;;;;21.75;nan;100449.28;20926037;28;20038;-86
2023/01/31 10:34:31;;;;;;;261.75;235.85;;;;;;;21.85;nan;100456.47;20927471;28;20059;-86
2023/01/31 10:44:49;;;;;;;245.75;221.57;;;;;;;21.94;nan;100447.81;20921686;28;20171;-83
2023/01/31 10:55:02;;;;;;;247.23;223.02;;;;;;;22.03;nan;100444.47;20928820;28;20068;-86
2023/01/31 11:05:03;;;;;;;251.80;226.98;;;;;;;22.09;nan;100431.75;20940584;28;20052;-85
2023/01/31 11:15:14;;;;;;;248.68;224.23;;;;;;;22.18;nan;100412.53;20950067;28;20041;-84
2023/01/31 11:25:21;;;;;;;249.75;225.07;;;;;;;22.22;nan;100414.78;20946343;28;20460;-83
2023/01/31 11:35:24;;;;;;;266.55;240.20;;;;;;;22.26;nan;100412.75;20943212;28;20127;-87
2023/01/31 11:45:29;;;;;;;248.50;224.07;;;;;;;22.33;nan;100395.44;20936914;28;20458;-85
2023/01/31 11:55:38;;;;;;;250.65;225.77;;;;;;;22.42;nan;100391.25;20934390;28;20494;-82
2023/01/31 12:05:43;;;;;;;246.38;222.07;;;;;;;22.46;nan;100399.75;20932357;28;20032;-81
2023/01/31 12:15:54;;;;;;;249.25;224.85;;;;;;;22.47;nan;100390.88;20928589;28;20048;-86
2023/01/31 12:26:12;;;;;;;246.20;221.63;;;;;;;22.46;nan;100383.91;20924954;28;20061;-84
2023/01/31 12:36:33;;;;;;;251.52;226.57;;;;;;;22.49;nan;100381.03;20929043;28;20122;-84
2023/01/31 12:47:11;;;;;;;245.15;220.98;;;;;;;22.54;nan;100366.50;20935215;28;20040;-81
2023/01/31 12:57:21;;;;;;;234.40;211.02;;;;;;;22.57;nan;100386.50;20943033;28;20051;-81
2023/01/31 13:07:44;;;;;;;253.10;227.63;;;;;;;22.51;nan;100410.78;20910581;28;20044;-81
2023/01/31 13:17:53;;;;;;;241.48;217.48;;;;;;;22.47;nan;100433.94;20923378;28;20046;-82
2023/01/31 13:27:59;;;;;;;234.40;210.85;;;;;;;22.54;nan;100450.94;20925336;28;20052;-79
2023/01/31 13:38:04;;;;;;;252.63;227.32;;;;;;;22.62;nan;100466.13;20917752;28;20090;-81
2023/01/31 13:48:09;;;;;;;252.52;226.80;;;;;;;22.64;nan;100474.78;20907364;28;20047;-76
2023/01/31 13:58:21;;;;;;;266.38;239.30;;;;;;;22.60;nan;100473.34;20909776;28;21030;-83
2023/01/31 14:08:49;;;;;;;275.10;247.27;;;;;;;22.46;nan;100476.25;20874715;28;20041;-76
2023/01/31 14:18:49;;;;;;;279.63;251.70;;;;;;;22.33;nan;100482.50;20896484;28;21251;-78
2023/01/31 14:28:50;;;;;;;325.95;293.35;;;;;;;22.24;nan;100483.25;20911515;28;20051;-76
2023/01/31 14:38:56;;;;;;;313.08;281.48;;;;;;;22.07;nan;100493.34;20893652;28;20036;-73
2023/01/31 14:49:15;;;;;;;337.60;303.60;;;;;;;22.07;nan;100501.25;20884007;28;20056;-74
2023/01/31 14:59:26;;;;;;;373.10;336.05;;;;;;;22.05;nan;100494.44;20898183;28;20139;-75
2023/01/31 15:09:36;;;;;;;404.83;364.77;;;;;;;21.97;nan;100492.41;20904548;28;20418;-75
2023/01/31 15:19:48;;;;;;;390.20;350.98;;;;;;;21.89;nan;100503.53;20886167;28;20051;-74
2023/01/31 15:29:58;;;;;;;451.07;407.47;;;;;;;21.79;nan;100510.50;20880044;28;20068;-81
2023/01/31 15:40:04;;;;;;;401.98;361.70;;;;;;;21.83;nan;100513.75;20915909;28;20068;-83
2023/01/31 15:50:17;;;;;;;587.35;533.28;;;;;;;21.82;nan;100514.69;20931338;28;20044;-83
2023/01/31 16:00:32;;;;;;;303.00;273.15;;;;;;;21.79;nan;100514.94;20921215;28;20041;-83
2023/01/31 16:10:33;;;;;;;338.88;305.52;;;;;;;21.73;nan;100511.00;20931045;28;20041;-82
2023/01/31 16:20:44;;;;;;;421.50;380.52;;;;;;;21.71;nan;100510.25;20934980;28;20490;-77
2023/01/31 16:30:45;;;;;;;407.70;368.13;;;;;;;21.70;nan;100509.44;20941414;28;20041;-82
2023/01/31 16:40:58;;;;;;;464.27;420.63;;;;;;;21.69;nan;100518.31;20917627;28;20037;-82
2023/01/31 16:51:20;;;;;;;650.73;592.00;;;;;;;21.67;nan;100514.94;20931013;28;20121;-76
2023/01/31 17:01:28;;;;;;;317.90;286.98;;;;;;;21.64;nan;100514.34;20897584;28;20089;-79
2023/01/31 17:11:29;;;;;;;409.70;368.95;;;;;;;21.61;nan;100512.78;20918272;28;20073;-79
2023/01/31 17:21:38;;;;;;;410.48;369.38;;;;;;;21.61;nan;100514.59;20925910;28;20521;-78
2023/01/31 17:31:40;;;;;;;397.63;358.70;;;;;;;21.58;nan;100508.59;20898165;28;20094;-78
2023/01/31 17:41:45;;;;;;;470.80;425.38;;;;;;;21.53;nan;100509.84;20898582;28;20048;-81
2023/01/31 17:51:47;;;;;;;435.08;391.95;;;;;;;21.48;nan;100502.28;20905443;28;20090;-81
2023/01/31 18:01:48;;;;;;;442.33;401.00;;;;;;;21.44;nan;100501.69;20921485;28;20068;-79
2023/01/31 18:11:50;;;;;;;325.17;293.73;;;;;;;21.48;nan;100486.50;20892420;28;20041;-81
2023/01/31 18:21:52;;;;;;;415.80;374.65;;;;;;;21.46;nan;100487.56;20883444;28;20036;-83
2023/01/31 18:32:01;;;;;;;375.58;339.58;;;;;;;21.44;nan;100490.34;20895725;28;20117;-79
2023/01/31 18:42:01;;;;;;;389.70;351.83;;;;;;;21.43;nan;100486.00;20888345;28;20052;-84
2023/01/31 18:52:05;;;;;;;351.63;317.30;;;;;;;21.41;nan;100486.16;20897122;28;20216;-79
2023/01/31 19:02:05;;;;;;;398.23;358.92;;;;;;;21.40;nan;100494.16;20898209;28;20115;-81
2023/01/31 19:12:06;;;;;;;374.02;337.50;;;;;;;21.37;nan;100497.03;20891351;28;20040;-83
2023/01/31 19:22:08;;;;;;;372.88;332.95;;;;;;;21.38;nan;100493.44;20898474;28;20281;-85
2023/01/31 19:32:09;;;;;;;419.05;375.55;;;;;;;21.39;nan;100501.22;20927298;28;20072;-84
2023/01/31 19:42:11;;;;;;;380.92;340.50;;;;;;;21.38;nan;100485.53;20921238;28;20047;-84
2023/01/31 19:52:15;;;;;;;462.70;416.57;;;;;;;21.36;nan;100483.03;20932132;28;20044;-82
2023/01/31 20:02:15;;;;;;;318.42;285.23;;;;;;;21.40;nan;100465.19;20920670;28;20044;-78
2023/01/31 20:12:16;;;;;;;372.27;334.70;;;;;;;21.36;nan;100474.28;20889590;28;21335;-77
2023/01/31 20:22:20;;;;;;;381.00;343.23;;;;;;;21.31;nan;100469.34;20903017;28;20280;-76
2023/01/31 20:32:24;;;;;;;416.73;374.63;;;;;;;21.26;nan;100479.41;20935430;28;20048;-87
2023/01/31 20:42:26;;;;;;;428.27;386.77;;;;;;;21.24;nan;100482.16;20939002;28;20044;-90
2023/01/31 20:52:28;;;;;;;362.02;326.15;;;;;;;21.23;nan;100466.50;20939850;28;20084;-86
2023/01/31 21:02:28;;;;;;;395.80;356.17;;;;;;;21.18;nan;100458.94;20956173;28;20135;-89
2023/01/31 21:12:30;;;;;;;398.58;359.10;;;;;;;21.16;nan;100444.22;20945413;28;20059;-90
2023/01/31 21:22:33;;;;;;;429.73;386.63;;;;;;;21.17;nan;100430.09;20946424;28;20040;-89
2023/01/31 21:32:33;;;;;;;423.00;380.77;;;;;;;21.14;nan;100425.91;20935256;28;20110;-88
2023/01/31 21:42:38;;;;;;;393.63;354.52;;;;;;;21.14;nan;100423.28;20931662;28;20040;-86
2023/01/31 21:52:38;;;;;;;356.42;321.70;;;;;;;21.09;nan;100425.38;20929463;28;20578;-86
2023/01/31 22:02:39;;;;;;;371.17;334.83;;;;;;;21.06;nan;100426.47;20913440;28;20032;-88
2023/01/31 22:12:40;;;;;;;419.95;378.50;;;;;;;21.08;nan;100428.97;20924396;28;20068;-88
2023/01/31 22:22:43;;;;;;;421.67;380.05;;;;;;;21.03;nan;100420.59;20923852;28;20041;-88
2023/01/31 22:32:44;;;;;;;385.00;347.33;;;;;;;21.02;nan;100413.66;20878749;28;1182405;-88
2023/01/31 22:42:45;;;;;;;313.52;283.15;;;;;;;20.97;nan;100392.13;20915424;28;20041;-89
2023/01/31 22:52:47;;;;;;;338.27;306.05;;;;;;;20.93;nan;100402.88;20920573;28;20055;-83
2023/01/31 23:02:47;;;;;;;346.80;313.50;;;;;;;20.93;nan;100367.81;20894411;28;20071;-83
2023/01/31 23:12:49;;;;;;;386.42;348.83;;;;;;;20.93;nan;100354.66;20923199;28;20049;-86
2023/01/31 23:22:52;;;;;;;397.38;360.25;;;;;;;20.90;nan;100344.38;20903318;28;20067;-84
2023/01/31 23:32:53;;;;;;;299.42;270.77;;;;;;;20.86;nan;100353.44;20910272;28;20044;-85
2023/01/31 23:42:54;;;;;;;334.67;302.80;;;;;;;20.83;nan;100354.53;20897706;28;20481;-82
2023/01/31 23:52:54;;;;;;;369.33;333.88;;;;;;;20.82;nan;100341.50;20902265;28;20036;-86
